sensor_id;sensor_type;location;lat;lon;timestamp;P1;durP1;ratioP1;P2;durP2;ratioP2
78903;SDS011;68291;49.602;8.722;2023-04-30T00:02:52;7.73;;;6.93;;
78903;SDS011;68291;49.602;8.722;2023-04-30T00:05:39;8.73;;;7.83;;
78903;SDS011;68291;49.602;8.722;2023-04-30T00:08:10;8.90;;;8.00;;
78903;SDS011;68291;49.602;8.722;2023-04-30T00:11:06;10.07;;;7.60;;
78903;SDS011;68291;49.602;8.722;2023-04-30T00:14:06;8.50;;;7.47;;
78903;SDS011;68291;49.602;8.722;2023-04-30T00:16:53;8.00;;;7.20;;
78903;SDS011;68291;49.602;8.722;2023-04-30T00:19:37;9.23;;;7.60;;
78903;SDS011;68291;49.602;8.722;2023-04-30T00:22:37;10.07;;;7.20;;
78903;SDS011;68291;49.602;8.722;2023-04-30T00:25:31;7.90;;;6.97;;
78903;SDS011;68291;49.602;8.722;2023-04-30T00:28:26;7.77;;;6.90;;
78903;SDS011;68291;49.602;8.722;2023-04-30T00:30:57;8.53;;;6.50;;
78903;SDS011;68291;49.602;8.722;2023-04-30T00:33:43;8.90;;;7.30;;
78903;SDS011;68291;49.602;8.722;2023-04-30T00:36:31;10.70;;;7.70;;
78903;SDS011;68291;49.602;8.722;2023-04-30T00:39:08;7.27;;;6.53;;
78903;SDS011;68291;49.602;8.722;2023-04-30T00:41:39;8.63;;;7.50;;
78903;SDS011;68291;49.602;8.722;2023-04-30T00:44:28;8.33;;;7.10;;
78903;SDS011;68291;49.602;8.722;2023-04-30T00:47:14;8.87;;;6.80;;
78903;SDS011;68291;49.602;8.722;2023-04-30T00:50:07;9.20;;;6.90;;
78903;SDS011;68291;49.602;8.722;2023-04-30T00:55:37;8.60;;;6.50;;
78903;SDS011;68291;49.602;8.722;2023-04-30T00:58:30;9.70;;;7.17;;
78903;SDS011;68291;49.602;8.722;2023-04-30T01:01:13;7.70;;;6.90;;
78903;SDS011;68291;49.602;8.722;2023-04-30T01:03:47;8.93;;;6.93;;
78903;SDS011;68291;49.602;8.722;2023-04-30T01:06:44;7.87;;;7.07;;
78903;SDS011;68291;49.602;8.722;2023-04-30T01:09:35;8.53;;;7.23;;
78903;SDS011;68291;49.602;8.722;2023-04-30T01:12:25;9.13;;;7.63;;
78903;SDS011;68291;49.602;8.722;2023-04-30T01:15:11;8.87;;;7.73;;
78903;SDS011;68291;49.602;8.722;2023-04-30T01:18:11;8.00;;;7.20;;
78903;SDS011;68291;49.602;8.722;2023-04-30T01:21:00;11.03;;;7.57;;
78903;SDS011;68291;49.602;8.722;2023-04-30T01:23:50;9.00;;;7.53;;
78903;SDS011;68291;49.602;8.722;2023-04-30T01:27:05;9.20;;;8.30;;
78903;SDS011;68291;49.602;8.722;2023-04-30T01:30:18;9.80;;;8.13;;
78903;SDS011;68291;49.602;8.722;2023-04-30T01:33:04;9.00;;;7.90;;
78903;SDS011;68291;49.602;8.722;2023-04-30T01:36:10;8.97;;;8.07;;
78903;SDS011;68291;49.602;8.722;2023-04-30T01:39:17;9.57;;;8.00;;
78903;SDS011;68291;49.602;8.722;2023-04-30T01:42:29;11.03;;;7.90;;
78903;SDS011;68291;49.602;8.722;2023-04-30T01:48:52;9.30;;;7.93;;
78903;SDS011;68291;49.602;8.722;2023-04-30T01:51:43;9.57;;;8.10;;
78903;SDS011;68291;49.602;8.722;2023-04-30T01:54:36;11.63;;;7.53;;
78903;SDS011;68291;49.602;8.722;2023-04-30T01:57:20;9.13;;;7.43;;
78903;SDS011;68291;49.602;8.722;2023-04-30T02:00:16;10.10;;;7.63;;
78903;SDS011;68291;49.602;8.722;2023-04-30T02:02:59;9.23;;;6.97;;
78903;SDS011;68291;49.602;8.722;2023-04-30T02:05:36;9.97;;;7.77;;
78903;SDS011;68291;49.602;8.722;2023-04-30T02:08:31;10.10;;;8.50;;
78903;SDS011;68291;49.602;8.722;2023-04-30T02:11:12;8.63;;;7.73;;
78903;SDS011;68291;49.602;8.722;2023-04-30T02:14:01;11.00;;;7.83;;
78903;SDS011;68291;49.602;8.722;2023-04-30T02:16:34;9.50;;;7.23;;
78903;SDS011;68291;49.602;8.722;2023-04-30T02:22:25;8.83;;;7.90;;
78903;SDS011;68291;49.602;8.722;2023-04-30T02:25:08;9.13;;;8.23;;
78903;SDS011;68291;49.602;8.722;2023-04-30T02:27:50;9.53;;;8.20;;
78903;SDS011;68291;49.602;8.722;2023-04-30T02:30:35;11.27;;;7.80;;
78903;SDS011;68291;49.602;8.722;2023-04-30T02:33:11;9.93;;;8.93;;
78903;SDS011;68291;49.602;8.722;2023-04-30T02:36:06;10.30;;;9.00;;
78903;SDS011;68291;49.602;8.722;2023-04-30T02:38:51;11.70;;;8.93;;
78903;SDS011;68291;49.602;8.722;2023-04-30T02:41:29;10.67;;;9.50;;
78903;SDS011;68291;49.602;8.722;2023-04-30T02:44:04;13.03;;;9.60;;
78903;SDS011;68291;49.602;8.722;2023-04-30T02:46:39;10.00;;;8.97;;
78903;SDS011;68291;49.602;8.722;2023-04-30T02:49:19;12.50;;;9.33;;
78903;SDS011;68291;49.602;8.722;2023-04-30T02:52:11;11.77;;;9.63;;
78903;SDS011;68291;49.602;8.722;2023-04-30T02:54:50;9.43;;;8.43;;
78903;SDS011;68291;49.602;8.722;2023-04-30T02:57:45;9.60;;;8.60;;
78903;SDS011;68291;49.602;8.722;2023-04-30T03:00:16;9.67;;;8.63;;
78903;SDS011;68291;49.602;8.722;2023-04-30T03:03:07;11.93;;;10.13;;
78903;SDS011;68291;49.602;8.722;2023-04-30T03:05:39;11.63;;;9.27;;
78903;SDS011;68291;49.602;8.722;2023-04-30T03:08:28;11.53;;;9.10;;
78903;SDS011;68291;49.602;8.722;2023-04-30T03:11:19;12.40;;;9.83;;
78903;SDS011;68291;49.602;8.722;2023-04-30T03:13:49;10.67;;;9.57;;
78903;SDS011;68291;49.602;8.722;2023-04-30T03:16:23;11.40;;;10.20;;
78903;SDS011;68291;49.602;8.722;2023-04-30T03:19:04;11.33;;;10.10;;
78903;SDS011;68291;49.602;8.722;2023-04-30T03:21:36;14.13;;;10.83;;
78903;SDS011;68291;49.602;8.722;2023-04-30T03:24:12;12.77;;;10.97;;
78903;SDS011;68291;49.602;8.722;2023-04-30T03:26:48;11.23;;;10.13;;
78903;SDS011;68291;49.602;8.722;2023-04-30T03:29:34;12.00;;;10.67;;
78903;SDS011;68291;49.602;8.722;2023-04-30T03:32:04;11.23;;;10.13;;
78903;SDS011;68291;49.602;8.722;2023-04-30T03:34:45;13.10;;;10.23;;
78903;SDS011;68291;49.602;8.722;2023-04-30T03:37:19;11.50;;;10.30;;
78903;SDS011;68291;49.602;8.722;2023-04-30T03:40:08;11.70;;;10.50;;
78903;SDS011;68291;49.602;8.722;2023-04-30T03:42:41;11.30;;;10.10;;
78903;SDS011;68291;49.602;8.722;2023-04-30T03:45:14;11.70;;;9.77;;
78903;SDS011;68291;49.602;8.722;2023-04-30T03:47:50;11.60;;;10.40;;
78903;SDS011;68291;49.602;8.722;2023-04-30T03:50:39;11.90;;;10.40;;
78903;SDS011;68291;49.602;8.722;2023-04-30T03:53:35;12.53;;;11.20;;
78903;SDS011;68291;49.602;8.722;2023-04-30T03:56:26;12.13;;;10.83;;
78903;SDS011;68291;49.602;8.722;2023-04-30T03:58:59;12.80;;;11.40;;
78903;SDS011;68291;49.602;8.722;2023-04-30T04:01:39;12.13;;;10.73;;
78903;SDS011;68291;49.602;8.722;2023-04-30T04:04:26;12.70;;;11.33;;
78903;SDS011;68291;49.602;8.722;2023-04-30T04:07:16;13.33;;;10.43;;
78903;SDS011;68291;49.602;8.722;2023-04-30T04:09:55;14.50;;;11.60;;
78903;SDS011;68291;49.602;8.722;2023-04-30T04:12:33;12.40;;;11.10;;
78903;SDS011;68291;49.602;8.722;2023-04-30T04:15:17;12.23;;;10.90;;
78903;SDS011;68291;49.602;8.722;2023-04-30T04:18:01;14.37;;;11.00;;
78903;SDS011;68291;49.602;8.722;2023-04-30T04:20:45;11.93;;;10.57;;
78903;SDS011;68291;49.602;8.722;2023-04-30T04:23:30;12.13;;;10.60;;
78903;SDS011;68291;49.602;8.722;2023-04-30T04:26:10;13.93;;;10.87;;
78903;SDS011;68291;49.602;8.722;2023-04-30T04:29:08;12.50;;;11.20;;
78903;SDS011;68291;49.602;8.722;2023-04-30T04:31:41;14.73;;;11.17;;
78903;SDS011;68291;49.602;8.722;2023-04-30T04:34:29;12.20;;;11.00;;
78903;SDS011;68291;49.602;8.722;2023-04-30T04:37:02;15.20;;;10.33;;
78903;SDS011;68291;49.602;8.722;2023-04-30T04:39:42;12.67;;;11.07;;
78903;SDS011;68291;49.602;8.722;2023-04-30T04:42:14;10.67;;;9.50;;
78903;SDS011;68291;49.602;8.722;2023-04-30T04:44:51;13.10;;;10.63;;
78903;SDS011;68291;49.602;8.722;2023-04-30T04:47:34;11.80;;;10.50;;
78903;SDS011;68291;49.602;8.722;2023-04-30T04:50:09;11.87;;;10.67;;
78903;SDS011;68291;49.602;8.722;2023-04-30T04:52:47;10.87;;;9.47;;
78903;SDS011;68291;49.602;8.722;2023-04-30T04:55:35;10.70;;;9.60;;
78903;SDS011;68291;49.602;8.722;2023-04-30T04:58:07;11.50;;;10.30;;
78903;SDS011;68291;49.602;8.722;2023-04-30T05:01:02;10.80;;;9.70;;
78903;SDS011;68291;49.602;8.722;2023-04-30T05:03:39;11.40;;;9.93;;
78903;SDS011;68291;49.602;8.722;2023-04-30T05:06:10;11.20;;;10.10;;
78903;SDS011;68291;49.602;8.722;2023-04-30T05:08:54;11.53;;;10.43;;
78903;SDS011;68291;49.602;8.722;2023-04-30T05:11:46;13.53;;;9.67;;
78903;SDS011;68291;49.602;8.722;2023-04-30T05:14:29;11.27;;;10.07;;
78903;SDS011;68291;49.602;8.722;2023-04-30T05:17:30;12.97;;;10.07;;
78903;SDS011;68291;49.602;8.722;2023-04-30T05:20:07;12.90;;;9.87;;
78903;SDS011;68291;49.602;8.722;2023-04-30T05:22:48;11.57;;;9.10;;
78903;SDS011;68291;49.602;8.722;2023-04-30T05:25:34;10.97;;;9.83;;
78903;SDS011;68291;49.602;8.722;2023-04-30T05:28:22;10.63;;;9.47;;
78903;SDS011;68291;49.602;8.722;2023-04-30T05:30:55;11.10;;;9.83;;
78903;SDS011;68291;49.602;8.722;2023-04-30T05:36:23;10.57;;;9.43;;
78903;SDS011;68291;49.602;8.722;2023-04-30T05:39:19;10.27;;;9.17;;
78903;SDS011;68291;49.602;8.722;2023-04-30T05:42:10;11.87;;;10.10;;
78903;SDS011;68291;49.602;8.722;2023-04-30T05:44:49;10.30;;;9.20;;
78903;SDS011;68291;49.602;8.722;2023-04-30T05:47:20;10.40;;;8.83;;
78903;SDS011;68291;49.602;8.722;2023-04-30T05:50:08;10.63;;;8.93;;
78903;SDS011;68291;49.602;8.722;2023-04-30T05:52:50;10.70;;;9.60;;
78903;SDS011;68291;49.602;8.722;2023-04-30T05:55:30;9.77;;;8.77;;
78903;SDS011;68291;49.602;8.722;2023-04-30T05:58:05;10.17;;;9.17;;
78903;SDS011;68291;49.602;8.722;2023-04-30T06:00:50;9.97;;;8.63;;
78903;SDS011;68291;49.602;8.722;2023-04-30T06:03:40;9.90;;;8.90;;
78903;SDS011;68291;49.602;8.722;2023-04-30T06:06:25;9.53;;;8.30;;
78903;SDS011;68291;49.602;8.722;2023-04-30T06:08:55;9.10;;;8.20;;
78903;SDS011;68291;49.602;8.722;2023-04-30T06:11:37;9.60;;;8.60;;
78903;SDS011;68291;49.602;8.722;2023-04-30T06:14:17;10.50;;;8.40;;
78903;SDS011;68291;49.602;8.722;2023-04-30T06:16:54;10.63;;;8.83;;
78903;SDS011;68291;49.602;8.722;2023-04-30T06:19:36;8.80;;;7.90;;
78903;SDS011;68291;49.602;8.722;2023-04-30T06:22:32;9.60;;;8.07;;
78903;SDS011;68291;49.602;8.722;2023-04-30T06:25:28;9.30;;;8.33;;
78903;SDS011;68291;49.602;8.722;2023-04-30T06:28:12;8.67;;;7.87;;
78903;SDS011;68291;49.602;8.722;2023-04-30T06:30:45;8.43;;;7.00;;
78903;SDS011;68291;49.602;8.722;2023-04-30T06:33:25;9.50;;;8.23;;
78903;SDS011;68291;49.602;8.722;2023-04-30T06:36:10;7.83;;;7.10;;
78903;SDS011;68291;49.602;8.722;2023-04-30T06:42:06;8.00;;;7.20;;
78903;SDS011;68291;49.602;8.722;2023-04-30T06:44:45;8.50;;;7.30;;
78903;SDS011;68291;49.602;8.722;2023-04-30T06:47:15;9.00;;;7.43;;
78903;SDS011;68291;49.602;8.722;2023-04-30T06:49:49;8.50;;;7.00;;
78903;SDS011;68291;49.602;8.722;2023-04-30T06:52:45;6.80;;;6.10;;
78903;SDS011;68291;49.602;8.722;2023-04-30T06:55:36;8.60;;;7.23;;
78903;SDS011;68291;49.602;8.722;2023-04-30T06:58:08;8.13;;;6.80;;
78903;SDS011;68291;49.602;8.722;2023-04-30T07:00:51;7.13;;;6.43;;
78903;SDS011;68291;49.602;8.722;2023-04-30T07:03:34;6.53;;;5.80;;
78903;SDS011;68291;49.602;8.722;2023-04-30T07:06:31;6.90;;;6.20;;
78903;SDS011;68291;49.602;8.722;2023-04-30T07:09:25;6.47;;;5.70;;
78903;SDS011;68291;49.602;8.722;2023-04-30T07:15:00;7.13;;;6.20;;
78903;SDS011;68291;49.602;8.722;2023-04-30T07:17:41;7.80;;;6.40;;
78903;SDS011;68291;49.602;8.722;2023-04-30T07:20:15;12.20;;;6.93;;
78903;SDS011;68291;49.602;8.722;2023-04-30T07:22:46;7.63;;;6.13;;
78903;SDS011;68291;49.602;8.722;2023-04-30T07:25:26;7.10;;;5.80;;
78903;SDS011;68291;49.602;8.722;2023-04-30T07:28:12;6.90;;;5.90;;
78903;SDS011;68291;49.602;8.722;2023-04-30T07:30:55;7.47;;;5.97;;
78903;SDS011;68291;49.602;8.722;2023-04-30T07:33:33;7.93;;;6.10;;
78903;SDS011;68291;49.602;8.722;2023-04-30T07:36:16;12.17;;;6.40;;
78903;SDS011;68291;49.602;8.722;2023-04-30T07:38:48;7.23;;;5.67;;
78903;SDS011;68291;49.602;8.722;2023-04-30T07:41:28;7.83;;;5.83;;
78903;SDS011;68291;49.602;8.722;2023-04-30T07:47:04;6.30;;;5.67;;
78903;SDS011;68291;49.602;8.722;2023-04-30T07:49:37;8.77;;;5.40;;
78903;SDS011;68291;49.602;8.722;2023-04-30T07:52:21;6.37;;;5.77;;
78903;SDS011;68291;49.602;8.722;2023-04-30T07:55:02;8.80;;;5.27;;
78903;SDS011;68291;49.602;8.722;2023-04-30T07:57:42;7.03;;;5.80;;
78903;SDS011;68291;49.602;8.722;2023-04-30T08:00:19;10.17;;;5.37;;
78903;SDS011;68291;49.602;8.722;2023-04-30T08:02:54;5.90;;;5.17;;
78903;SDS011;68291;49.602;8.722;2023-04-30T08:05:50;7.67;;;5.43;;
78903;SDS011;68291;49.602;8.722;2023-04-30T08:08:33;5.07;;;4.57;;
78903;SDS011;68291;49.602;8.722;2023-04-30T08:11:05;6.53;;;5.30;;
78903;SDS011;68291;49.602;8.722;2023-04-30T08:13:57;6.07;;;5.00;;
78903;SDS011;68291;49.602;8.722;2023-04-30T08:16:58;5.43;;;4.70;;
78903;SDS011;68291;49.602;8.722;2023-04-30T08:19:49;6.47;;;5.23;;
78903;SDS011;68291;49.602;8.722;2023-04-30T08:22:29;6.70;;;5.23;;
78903;SDS011;68291;49.602;8.722;2023-04-30T08:25:11;5.60;;;5.00;;
78903;SDS011;68291;49.602;8.722;2023-04-30T08:27:50;4.63;;;4.03;;
78903;SDS011;68291;49.602;8.722;2023-04-30T08:30:32;6.70;;;4.87;;
78903;SDS011;68291;49.602;8.722;2023-04-30T08:33:22;5.90;;;4.73;;
78903;SDS011;68291;49.602;8.722;2023-04-30T08:36:13;5.80;;;4.53;;
78903;SDS011;68291;49.602;8.722;2023-04-30T08:38:44;5.73;;;4.73;;
78903;SDS011;68291;49.602;8.722;2023-04-30T08:41:29;7.50;;;4.70;;
78903;SDS011;68291;49.602;8.722;2023-04-30T08:44:06;5.83;;;4.37;;
78903;SDS011;68291;49.602;8.722;2023-04-30T08:46:50;5.57;;;4.47;;
78903;SDS011;68291;49.602;8.722;2023-04-30T08:49:55;5.47;;;4.37;;
78903;SDS011;68291;49.602;8.722;2023-04-30T08:52:34;5.23;;;4.13;;
78903;SDS011;68291;49.602;8.722;2023-04-30T08:55:17;6.40;;;3.90;;
78903;SDS011;68291;49.602;8.722;2023-04-30T08:57:53;5.00;;;3.97;;
78903;SDS011;68291;49.602;8.722;2023-04-30T09:00:40;7.77;;;3.80;;
78903;SDS011;68291;49.602;8.722;2023-04-30T09:03:34;5.03;;;3.33;;
78903;SDS011;68291;49.602;8.722;2023-04-30T09:09:29;5.07;;;3.53;;
78903;SDS011;68291;49.602;8.722;2023-04-30T09:12:25;4.37;;;3.30;;
78903;SDS011;68291;49.602;8.722;2023-04-30T09:15:16;4.17;;;3.10;;
78903;SDS011;68291;49.602;8.722;2023-04-30T09:18:05;3.57;;;2.70;;
78903;SDS011;68291;49.602;8.722;2023-04-30T09:20:55;5.83;;;3.10;;
78903;SDS011;68291;49.602;8.722;2023-04-30T09:23:57;3.73;;;2.93;;
78903;SDS011;68291;49.602;8.722;2023-04-30T09:26:38;3.37;;;3.07;;
78903;SDS011;68291;49.602;8.722;2023-04-30T09:29:12;4.23;;;3.07;;
78903;SDS011;68291;49.602;8.722;2023-04-30T09:32:07;3.73;;;2.90;;
78903;SDS011;68291;49.602;8.722;2023-04-30T09:35:03;8.67;;;3.10;;
78903;SDS011;68291;49.602;8.722;2023-04-30T09:37:53;6.30;;;3.00;;
78903;SDS011;68291;49.602;8.722;2023-04-30T09:40:37;5.30;;;2.90;;
78903;SDS011;68291;49.602;8.722;2023-04-30T09:43:17;3.83;;;3.30;;
78903;SDS011;68291;49.602;8.722;2023-04-30T09:46:03;4.30;;;3.07;;
78903;SDS011;68291;49.602;8.722;2023-04-30T09:49:00;3.40;;;3.00;;
78903;SDS011;68291;49.602;8.722;2023-04-30T09:51:57;5.47;;;2.90;;
78903;SDS011;68291;49.602;8.722;2023-04-30T09:54:50;4.53;;;3.07;;
78903;SDS011;68291;49.602;8.722;2023-04-30T09:57:27;3.07;;;2.50;;
78903;SDS011;68291;49.602;8.722;2023-04-30T10:00:05;3.37;;;3.03;;
78903;SDS011;68291;49.602;8.722;2023-04-30T10:02:43;2.63;;;2.43;;
78903;SDS011;68291;49.602;8.722;2023-04-30T10:05:29;4.47;;;2.60;;
78903;SDS011;68291;49.602;8.722;2023-04-30T10:08:06;3.00;;;2.60;;
78903;SDS011;68291;49.602;8.722;2023-04-30T10:11:02;3.60;;;2.77;;
78903;SDS011;68291;49.602;8.722;2023-04-30T10:14:13;3.23;;;2.50;;
78903;SDS011;68291;49.602;8.722;2023-04-30T10:16:53;4.67;;;2.77;;
78903;SDS011;68291;49.602;8.722;2023-04-30T10:19:38;3.10;;;2.70;;
78903;SDS011;68291;49.602;8.722;2023-04-30T10:22:33;3.20;;;2.47;;
78903;SDS011;68291;49.602;8.722;2023-04-30T10:25:29;3.07;;;2.60;;
78903;SDS011;68291;49.602;8.722;2023-04-30T10:28:09;3.83;;;2.50;;
78903;SDS011;68291;49.602;8.722;2023-04-30T10:34:28;2.57;;;2.33;;
78903;SDS011;68291;49.602;8.722;2023-04-30T10:37:28;3.30;;;2.60;;
78903;SDS011;68291;49.602;8.722;2023-04-30T10:40:35;2.83;;;2.00;;
78903;SDS011;68291;49.602;8.722;2023-04-30T10:43:10;3.77;;;2.70;;
78903;SDS011;68291;49.602;8.722;2023-04-30T10:46:05;3.90;;;2.47;;
78903;SDS011;68291;49.602;8.722;2023-04-30T10:49:14;4.03;;;2.30;;
78903;SDS011;68291;49.602;8.722;2023-04-30T10:52:03;2.57;;;2.13;;
78903;SDS011;68291;49.602;8.722;2023-04-30T10:54:53;2.87;;;2.17;;
78903;SDS011;68291;49.602;8.722;2023-04-30T10:57:26;3.23;;;2.10;;
78903;SDS011;68291;49.602;8.722;2023-04-30T11:00:17;3.93;;;2.00;;
78903;SDS011;68291;49.602;8.722;2023-04-30T11:03:07;2.63;;;2.00;;
78903;SDS011;68291;49.602;8.722;2023-04-30T11:06:10;2.03;;;1.83;;
78903;SDS011;68291;49.602;8.722;2023-04-30T11:08:58;2.90;;;2.00;;
78903;SDS011;68291;49.602;8.722;2023-04-30T11:11:41;2.30;;;2.10;;
78903;SDS011;68291;49.602;8.722;2023-04-30T11:14:41;2.67;;;2.00;;
78903;SDS011;68291;49.602;8.722;2023-04-30T11:17:30;4.03;;;1.97;;
78903;SDS011;68291;49.602;8.722;2023-04-30T11:20:18;2.53;;;1.90;;
78903;SDS011;68291;49.602;8.722;2023-04-30T11:23:12;3.37;;;2.00;;
78903;SDS011;68291;49.602;8.722;2023-04-30T11:26:06;4.30;;;2.10;;
78903;SDS011;68291;49.602;8.722;2023-04-30T11:28:54;3.17;;;2.20;;
78903;SDS011;68291;49.602;8.722;2023-04-30T11:31:34;2.30;;;2.10;;
78903;SDS011;68291;49.602;8.722;2023-04-30T11:34:20;2.97;;;1.90;;
78903;SDS011;68291;49.602;8.722;2023-04-30T11:37:18;1.97;;;1.77;;
78903;SDS011;68291;49.602;8.722;2023-04-30T11:40:11;2.63;;;1.90;;
78903;SDS011;68291;49.602;8.722;2023-04-30T11:42:54;1.83;;;1.70;;
78903;SDS011;68291;49.602;8.722;2023-04-30T11:45:38;2.30;;;1.63;;
78903;SDS011;68291;49.602;8.722;2023-04-30T11:48:33;2.70;;;1.97;;
78903;SDS011;68291;49.602;8.722;2023-04-30T11:51:19;2.70;;;1.90;;
78903;SDS011;68291;49.602;8.722;2023-04-30T11:54:06;2.63;;;2.10;;
78903;SDS011;68291;49.602;8.722;2023-04-30T11:56:51;3.90;;;1.80;;
78903;SDS011;68291;49.602;8.722;2023-04-30T11:59:39;4.50;;;1.90;;
78903;SDS011;68291;49.602;8.722;2023-04-30T12:02:31;2.27;;;1.77;;
78903;SDS011;68291;49.602;8.722;2023-04-30T12:05:14;1.70;;;1.60;;
78903;SDS011;68291;49.602;8.722;2023-04-30T12:07:58;3.97;;;2.10;;
78903;SDS011;68291;49.602;8.722;2023-04-30T12:10:37;2.73;;;1.90;;
78903;SDS011;68291;49.602;8.722;2023-04-30T12:13:30;2.33;;;1.63;;
78903;SDS011;68291;49.602;8.722;2023-04-30T12:16:12;3.60;;;2.00;;
78903;SDS011;68291;49.602;8.722;2023-04-30T12:18:48;5.40;;;2.10;;
78903;SDS011;68291;49.602;8.722;2023-04-30T12:21:26;2.03;;;1.70;;
78903;SDS011;68291;49.602;8.722;2023-04-30T12:24:15;3.50;;;1.90;;
78903;SDS011;68291;49.602;8.722;2023-04-30T12:27:11;3.07;;;2.07;;
78903;SDS011;68291;49.602;8.722;2023-04-30T12:29:48;2.50;;;1.80;;
78903;SDS011;68291;49.602;8.722;2023-04-30T12:32:25;1.90;;;1.70;;
78903;SDS011;68291;49.602;8.722;2023-04-30T12:35:15;3.67;;;1.70;;
78903;SDS011;68291;49.602;8.722;2023-04-30T12:38:14;2.73;;;1.90;;
78903;SDS011;68291;49.602;8.722;2023-04-30T12:40:57;2.97;;;1.80;;
78903;SDS011;68291;49.602;8.722;2023-04-30T12:49:59;3.03;;;1.70;;
78903;SDS011;68291;49.602;8.722;2023-04-30T12:52:44;1.77;;;1.63;;
78903;SDS011;68291;49.602;8.722;2023-04-30T12:55:30;2.70;;;1.50;;
78903;SDS011;68291;49.602;8.722;2023-04-30T12:58:07;1.60;;;1.50;;
78903;SDS011;68291;49.602;8.722;2023-04-30T13:00:55;1.47;;;1.37;;
78903;SDS011;68291;49.602;8.722;2023-04-30T13:03:47;2.60;;;1.50;;
78903;SDS011;68291;49.602;8.722;2023-04-30T13:06:43;2.17;;;1.70;;
78903;SDS011;68291;49.602;8.722;2023-04-30T13:09:27;3.33;;;1.70;;
78903;SDS011;68291;49.602;8.722;2023-04-30T13:12:14;2.20;;;1.80;;
78903;SDS011;68291;49.602;8.722;2023-04-30T13:14:57;2.17;;;1.60;;
78903;SDS011;68291;49.602;8.722;2023-04-30T13:17:36;1.87;;;1.70;;
78903;SDS011;68291;49.602;8.722;2023-04-30T13:20:34;1.70;;;1.60;;
78903;SDS011;68291;49.602;8.722;2023-04-30T13:23:20;2.27;;;1.57;;
78903;SDS011;68291;49.602;8.722;2023-04-30T13:26:22;4.77;;;1.80;;
78903;SDS011;68291;49.602;8.722;2023-04-30T13:29:13;2.03;;;1.60;;
78903;SDS011;68291;49.602;8.722;2023-04-30T13:32:11;1.67;;;1.50;;
78903;SDS011;68291;49.602;8.722;2023-04-30T13:34:49;2.80;;;1.47;;
78903;SDS011;68291;49.602;8.722;2023-04-30T13:37:36;1.73;;;1.47;;
78903;SDS011;68291;49.602;8.722;2023-04-30T13:40:09;2.50;;;1.43;;
78903;SDS011;68291;49.602;8.722;2023-04-30T13:42:40;2.43;;;1.23;;
78903;SDS011;68291;49.602;8.722;2023-04-30T13:45:21;2.07;;;1.33;;
78903;SDS011;68291;49.602;8.722;2023-04-30T13:47:53;1.50;;;1.40;;
78903;SDS011;68291;49.602;8.722;2023-04-30T13:50:34;1.30;;;1.20;;
78903;SDS011;68291;49.602;8.722;2023-04-30T13:56:41;1.57;;;1.33;;
78903;SDS011;68291;49.602;8.722;2023-04-30T13:59:36;1.50;;;1.40;;
78903;SDS011;68291;49.602;8.722;2023-04-30T14:02:27;1.93;;;1.63;;
78903;SDS011;68291;49.602;8.722;2023-04-30T14:05:15;1.47;;;1.37;;
78903;SDS011;68291;49.602;8.722;2023-04-30T14:07:55;2.13;;;1.30;;
78903;SDS011;68291;49.602;8.722;2023-04-30T14:10:44;2.00;;;1.53;;
78903;SDS011;68291;49.602;8.722;2023-04-30T14:13:25;1.40;;;1.30;;
78903;SDS011;68291;49.602;8.722;2023-04-30T14:16:08;1.43;;;1.20;;
78903;SDS011;68291;49.602;8.722;2023-04-30T14:18:53;1.77;;;1.23;;
78903;SDS011;68291;49.602;8.722;2023-04-30T14:21:30;1.40;;;1.17;;
78903;SDS011;68291;49.602;8.722;2023-04-30T14:24:15;1.30;;;1.20;;
78903;SDS011;68291;49.602;8.722;2023-04-30T14:26:59;2.27;;;1.30;;
78903;SDS011;68291;49.602;8.722;2023-04-30T14:29:47;1.37;;;1.27;;
78903;SDS011;68291;49.602;8.722;2023-04-30T14:32:18;1.50;;;1.40;;
78903;SDS011;68291;49.602;8.722;2023-04-30T14:35:10;1.90;;;1.43;;
78903;SDS011;68291;49.602;8.722;2023-04-30T14:37:55;1.90;;;1.53;;
78903;SDS011;68291;49.602;8.722;2023-04-30T14:40:43;1.50;;;1.40;;
78903;SDS011;68291;49.602;8.722;2023-04-30T14:46:41;1.77;;;1.40;;
78903;SDS011;68291;49.602;8.722;2023-04-30T14:49:30;1.53;;;1.43;;
78903;SDS011;68291;49.602;8.722;2023-04-30T14:52:03;1.30;;;1.20;;
78903;SDS011;68291;49.602;8.722;2023-04-30T14:54:55;2.00;;;1.30;;
78903;SDS011;68291;49.602;8.722;2023-04-30T14:57:34;1.30;;;1.20;;
78903;SDS011;68291;49.602;8.722;2023-04-30T15:00:29;1.37;;;1.27;;
78903;SDS011;68291;49.602;8.722;2023-04-30T15:03:00;2.37;;;1.03;;
78903;SDS011;68291;49.602;8.722;2023-04-30T15:05:32;1.40;;;1.30;;
78903;SDS011;68291;49.602;8.722;2023-04-30T15:08:24;1.93;;;1.30;;
78903;SDS011;68291;49.602;8.722;2023-04-30T15:11:10;2.20;;;1.50;;
78903;SDS011;68291;49.602;8.722;2023-04-30T15:14:05;1.40;;;1.30;;
78903;SDS011;68291;49.602;8.722;2023-04-30T15:17:06;1.30;;;1.20;;
78903;SDS011;68291;49.602;8.722;2023-04-30T15:19:52;1.27;;;1.17;;
78903;SDS011;68291;49.602;8.722;2023-04-30T15:22:35;2.00;;;1.37;;
78903;SDS011;68291;49.602;8.722;2023-04-30T15:25:09;1.40;;;1.17;;
78903;SDS011;68291;49.602;8.722;2023-04-30T15:27:49;1.13;;;1.03;;
78903;SDS011;68291;49.602;8.722;2023-04-30T15:30:29;2.83;;;2.30;;
78903;SDS011;68291;49.602;8.722;2023-04-30T15:39:08;1.73;;;1.30;;
78903;SDS011;68291;49.602;8.722;2023-04-30T15:41:40;1.50;;;1.30;;
78903;SDS011;68291;49.602;8.722;2023-04-30T15:44:26;1.60;;;1.30;;
78903;SDS011;68291;49.602;8.722;2023-04-30T15:47:23;1.20;;;1.10;;
78903;SDS011;68291;49.602;8.722;2023-04-30T15:53:07;1.30;;;1.20;;
78903;SDS011;68291;49.602;8.722;2023-04-30T15:55:40;1.70;;;1.60;;
78903;SDS011;68291;49.602;8.722;2023-04-30T15:58:26;2.73;;;1.57;;
78903;SDS011;68291;49.602;8.722;2023-04-30T16:01:02;1.87;;;1.37;;
78903;SDS011;68291;49.602;8.722;2023-04-30T16:03:47;2.27;;;1.30;;
78903;SDS011;68291;49.602;8.722;2023-04-30T16:06:34;3.23;;;1.50;;
78903;SDS011;68291;49.602;8.722;2023-04-30T16:09:11;2.40;;;1.20;;
78903;SDS011;68291;49.602;8.722;2023-04-30T16:12:02;1.33;;;1.20;;
78903;SDS011;68291;49.602;8.722;2023-04-30T16:14:36;1.40;;;1.30;;
78903;SDS011;68291;49.602;8.722;2023-04-30T16:17:18;1.53;;;1.40;;
78903;SDS011;68291;49.602;8.722;2023-04-30T16:20:07;1.63;;;1.10;;
78903;SDS011;68291;49.602;8.722;2023-04-30T16:23:07;1.40;;;1.20;;
78903;SDS011;68291;49.602;8.722;2023-04-30T16:25:58;1.53;;;1.43;;
78903;SDS011;68291;49.602;8.722;2023-04-30T16:28:43;1.97;;;1.63;;
78903;SDS011;68291;49.602;8.722;2023-04-30T16:31:39;1.37;;;1.27;;
78903;SDS011;68291;49.602;8.722;2023-04-30T16:34:30;3.13;;;1.70;;
78903;SDS011;68291;49.602;8.722;2023-04-30T16:37:03;1.63;;;1.53;;
78903;SDS011;68291;49.602;8.722;2023-04-30T16:40:01;1.93;;;1.40;;
78903;SDS011;68291;49.602;8.722;2023-04-30T16:42:39;1.80;;;1.70;;
78903;SDS011;68291;49.602;8.722;2023-04-30T16:45:34;2.53;;;1.80;;
78903;SDS011;68291;49.602;8.722;2023-04-30T16:48:06;2.10;;;1.73;;
78903;SDS011;68291;49.602;8.722;2023-04-30T16:50:53;1.70;;;1.50;;
78903;SDS011;68291;49.602;8.722;2023-04-30T16:53:33;1.50;;;1.40;;
78903;SDS011;68291;49.602;8.722;2023-04-30T16:59:04;1.27;;;1.13;;
78903;SDS011;68291;49.602;8.722;2023-04-30T17:01:44;1.60;;;1.27;;
78903;SDS011;68291;49.602;8.722;2023-04-30T17:04:29;1.40;;;1.30;;
78903;SDS011;68291;49.602;8.722;2023-04-30T17:07:11;1.20;;;1.10;;
78903;SDS011;68291;49.602;8.722;2023-04-30T17:09:58;1.30;;;1.20;;
78903;SDS011;68291;49.602;8.722;2023-04-30T17:12:57;1.40;;;1.30;;
78903;SDS011;68291;49.602;8.722;2023-04-30T17:15:41;1.33;;;1.23;;
78903;SDS011;68291;49.602;8.722;2023-04-30T17:18:37;1.53;;;1.30;;
78903;SDS011;68291;49.602;8.722;2023-04-30T17:21:08;1.90;;;1.00;;
78903;SDS011;68291;49.602;8.722;2023-04-30T17:23:54;1.30;;;1.20;;